sim
Sign-in with your pilot id or email,
or register
Callsign
Passwort

Schedule Details

Flight Number: EWG1700 (2)
Departure: Munich Airport (EDDM) at 11:05
Arrival: Thessaloniki International Airport (LGTS) at 13:05
Route: Eurowings Passenger Schedule. Enter filed route here before submitting Pirep.

Weather Information
Getting current METAR information for EDDM 211120Z 26009KT 9999 FEW028 11/04 Q1028 NOSIG
Getting current METAR information for LGTS 211120Z 33019KT CAVOK 16/M01 Q1023 NOSIG

Schedule Frequency

Route Map